Time;durP1;ratioP1;P1;durP2;ratioP2;P2;SDS_P1;SDS_P2;PMS_P1;PMS_P2;Temp;Humidity;BMP_temperature;BMP_pressure;BME280_temperature;BME280_humidity;BME280_pressure;Samples;Min_cycle;Max_cycle;Signal;HPM_P1;HPM_P2
2021/01/23 00:01:45;;;;;;;17.30;13.37;;;;;;;3.41;100.00;96246.38;4994305;28;20207;-82
2021/01/23 00:04:13;;;;;;;18.23;13.57;;;;;;;3.36;100.00;96241.53;4994043;28;20270;-83
2021/01/23 00:06:39;;;;;;;15.87;11.53;;;;;;;3.26;100.00;96243.97;4993699;28;20581;-83
2021/01/23 00:09:06;;;;;;;18.13;13.00;;;;;;;3.21;100.00;96240.88;4994303;28;20201;-83
2021/01/23 00:11:33;;;;;;;17.47;13.00;;;;;;;3.25;100.00;96237.09;4993846;28;20681;-83
2021/01/23 00:14:00;;;;;;;19.60;12.67;;;;;;;3.31;100.00;96228.88;4993926;28;20608;-83
2021/01/23 00:16:26;;;;;;;17.20;13.77;;;;;;;3.38;100.00;96223.22;4993515;28;20665;-83
2021/01/23 00:18:53;;;;;;;15.40;11.97;;;;;;;3.19;100.00;96236.78;4993980;28;20227;-83
2021/01/23 00:21:21;;;;;;;19.03;13.77;;;;;;;3.34;100.00;96231.25;4993692;28;20878;-83
2021/01/23 00:23:48;;;;;;;18.97;13.67;;;;;;;3.31;100.00;96233.25;4993915;28;20638;-82
2021/01/23 00:26:15;;;;;;;16.73;13.00;;;;;;;3.45;100.00;96222.63;4993920;28;20627;-83
2021/01/23 00:28:41;;;;;;;18.53;13.87;;;;;;;3.61;100.00;96230.09;4992496;28;20594;-82
2021/01/23 00:31:08;;;;;;;16.40;13.40;;;;;;;3.60;100.00;96230.22;4993442;28;20196;-83
2021/01/23 00:33:35;;;;;;;18.33;14.07;;;;;;;3.36;100.00;96231.16;4993758;28;20200;-83
2021/01/23 00:36:02;;;;;;;21.80;13.90;;;;;;;3.24;100.00;96245.84;4993098;28;20208;-83
2021/01/23 00:38:30;;;;;;;18.10;13.83;;;;;;;3.39;100.00;96238.69;4992999;28;20597;-83
2021/01/23 00:40:57;;;;;;;18.07;14.20;;;;;;;3.26;100.00;96236.19;4993324;28;20200;-83
2021/01/23 00:43:23;;;;;;;16.53;12.67;;;;;;;3.39;100.00;96232.66;4992967;28;20292;-83
2021/01/23 00:45:50;;;;;;;18.40;13.30;;;;;;;3.38;100.00;96225.81;4992945;28;20259;-83
2021/01/23 00:48:17;;;;;;;15.50;12.57;;;;;;;3.15;100.00;96228.34;4993120;28;20200;-83
2021/01/23 00:50:44;;;;;;;15.20;12.70;;;;;;;2.97;100.00;96217.56;4992758;28;20207;-83
2021/01/23 00:53:11;;;;;;;13.67;11.40;;;;;;;2.87;100.00;96208.78;4993240;28;20244;-82
2021/01/23 00:55:38;;;;;;;18.17;12.90;;;;;;;2.86;100.00;96201.94;4992275;28;20259;-82
2021/01/23 00:58:05;;;;;;;12.93;10.33;;;;;;;2.85;100.00;96195.13;4991241;28;20635;-82
2021/01/23 01:00:32;;;;;;;15.10;12.03;;;;;;;2.81;100.00;96189.31;4992935;28;20291;-82
2021/01/23 01:02:59;;;;;;;18.73;13.40;;;;;;;3.03;100.00;96175.56;4992760;28;20204;-83
2021/01/23 01:05:25;;;;;;;14.67;12.57;;;;;;;3.07;100.00;96184.78;4992702;28;20200;-83
2021/01/23 01:07:52;;;;;;;18.93;14.57;;;;;;;3.14;100.00;96182.56;4992640;28;20258;-83
2021/01/23 01:10:19;;;;;;;14.80;12.97;;;;;;;3.13;100.00;96178.31;4993192;28;20232;-83
2021/01/23 01:12:47;;;;;;;21.70;16.00;;;;;;;3.21;100.00;96185.53;4992548;28;20200;-83
2021/01/23 01:15:14;;;;;;;14.33;11.17;;;;;;;3.22;100.00;96188.03;4992619;28;20196;-83
2021/01/23 01:17:41;;;;;;;18.93;13.37;;;;;;;3.19;100.00;96182.22;4993186;28;20232;-87
2021/01/23 01:20:09;;;;;;;20.77;13.30;;;;;;;3.08;100.00;96186.47;4992994;28;20232;-89
2021/01/23 01:22:36;;;;;;;20.80;14.63;;;;;;;3.17;100.00;96178.91;4993149;28;20697;-84
2021/01/23 01:25:03;;;;;;;17.43;13.23;;;;;;;3.07;100.00;96174.38;4992936;28;20735;-87
2021/01/23 01:27:30;;;;;;;20.70;14.73;;;;;;;3.15;100.00;96183.38;4992895;28;20665;-87
2021/01/23 01:29:58;;;;;;;17.93;13.90;;;;;;;2.99;100.00;96183.72;4993578;28;20627;-89
2021/01/23 01:32:24;;;;;;;18.47;13.40;;;;;;;2.79;100.00;96177.38;4992964;28;20215;-87
2021/01/23 01:34:51;;;;;;;18.60;13.80;;;;;;;2.82;100.00;96171.97;4992906;28;20208;-87
2021/01/23 01:37:18;;;;;;;30.03;20.73;;;;;;;3.00;100.00;96157.63;4992908;28;20269;-86
2021/01/23 01:39:45;;;;;;;18.13;12.93;;;;;;;3.02;100.00;96145.34;4992764;28;20285;-86
2021/01/23 01:42:12;;;;;;;21.03;13.43;;;;;;;2.86;100.00;96144.84;4993182;28;20650;-88
2021/01/23 01:44:39;;;;;;;16.97;13.23;;;;;;;2.88;100.00;96142.97;4992805;28;20207;-87
2021/01/23 01:47:06;;;;;;;17.57;13.10;;;;;;;2.91;100.00;96149.69;4993155;28;20232;-87
2021/01/23 01:49:33;;;;;;;17.03;12.83;;;;;;;2.76;100.00;96136.91;4992561;28;20200;-87
2021/01/23 01:52:00;;;;;;;17.60;13.60;;;;;;;2.73;100.00;96134.53;4992663;28;20572;-86
2021/01/23 01:54:28;;;;;;;17.47;13.63;;;;;;;2.88;100.00;96132.59;4992733;28;20207;-85
2021/01/23 01:56:54;;;;;;;14.03;11.87;;;;;;;2.99;100.00;96130.00;4992674;28;20196;-87
2021/01/23 01:59:21;;;;;;;15.77;12.23;;;;;;;3.24;100.00;96133.34;4992886;28;20719;-87
2021/01/23 02:01:52;;;;;;;15.77;13.87;;;;;;;2.89;100.00;96133.41;4993951;28;20196;-87
2021/01/23 02:04:31;;;;;;;18.33;13.63;;;;;;;3.10;100.00;96118.81;4996634;28;20733;-87
2021/01/23 02:07:10;;;;;;;24.03;17.93;;;;;;;3.13;100.00;96130.75;4996895;28;20180;-87
2021/01/23 02:09:54;;;;;;;45.20;25.23;;;;;;;2.79;100.00;96131.50;4996981;28;20188;-87
2021/01/23 02:12:27;;;;;;;45.43;27.07;;;;;;;2.70;100.00;96129.59;4996424;28;20238;-87
2021/01/23 02:15:01;;;;;;;33.33;23.27;;;;;;;2.73;100.00;96129.34;4996762;28;20552;-87
2021/01/23 02:17:30;;;;;;;19.20;14.83;;;;;;;2.56;100.00;96128.03;4996629;28;20211;-87
2021/01/23 02:20:19;;;;;;;16.10;13.83;;;;;;;2.64;100.00;96130.03;4996254;28;20315;-87
2021/01/23 02:23:04;;;;;;;16.87;13.63;;;;;;;2.88;100.00;96127.41;4967222;28;20677;-87
2021/01/23 02:25:37;;;;;;;15.93;12.70;;;;;;;2.89;100.00;96120.44;4996556;28;20192;-87
2021/01/23 02:28:15;;;;;;;28.17;18.17;;;;;;;2.76;100.00;96120.50;4996719;28;20570;-87
2021/01/23 02:30:50;;;;;;;29.87;20.70;;;;;;;2.68;100.00;96117.66;4996243;28;20184;-87
2021/01/23 02:33:18;;;;;;;30.60;22.73;;;;;;;2.58;100.00;96105.38;4996258;28;20194;-87
2021/01/23 02:35:45;;;;;;;22.43;18.93;;;;;;;2.81;100.00;96113.22;4996269;28;20200;-87
2021/01/23 02:38:13;;;;;;;19.27;14.83;;;;;;;2.80;100.00;96114.16;4995579;28;20231;-87
2021/01/23 02:40:40;;;;;;;20.77;15.10;;;;;;;3.12;100.00;96116.94;4995082;28;20628;-87
2021/01/23 02:43:08;;;;;;;14.47;12.17;;;;;;;2.97;100.00;96108.50;4994817;28;20755;-87
2021/01/23 02:45:34;;;;;;;16.73;12.80;;;;;;;2.88;100.00;96106.63;4995042;28;20286;-88
2021/01/23 02:48:01;;;;;;;21.60;16.17;;;;;;;2.78;100.00;96103.06;4994198;28;20258;-87
2021/01/23 02:50:29;;;;;;;17.43;13.03;;;;;;;2.77;100.00;96101.41;4995152;28;20204;-88
2021/01/23 02:53:04;;;;;;;22.83;14.70;;;;;;;2.80;100.00;96089.00;4994694;28;20207;-87
2021/01/23 02:55:34;;;;;;;19.30;13.90;;;;;;;3.05;100.00;96085.41;4995002;28;20705;-87
2021/01/23 02:58:03;;;;;;;18.70;12.40;;;;;;;2.78;100.00;96090.09;4994327;28;20204;-87
2021/01/23 03:00:31;;;;;;;23.27;14.77;;;;;;;2.95;100.00;96094.84;4994763;28;20243;-87
2021/01/23 03:03:00;;;;;;;28.20;18.10;;;;;;;2.92;100.00;96095.06;4994839;28;20363;-87
2021/01/23 03:05:30;;;;;;;32.23;18.83;;;;;;;2.57;100.00;96093.34;4994864;28;20634;-88
2021/01/23 03:07:57;;;;;;;26.20;17.30;;;;;;;2.83;100.00;96100.94;4994702;28;20672;-87
2021/01/23 03:10:35;;;;;;;27.47;16.93;;;;;;;2.96;100.00;96108.66;4994679;28;20242;-87
2021/01/23 03:13:03;;;;;;;19.90;14.47;;;;;;;2.89;100.00;96108.28;4994118;28;20215;-87
2021/01/23 03:15:29;;;;;;;34.67;20.73;;;;;;;2.71;100.00;96099.28;4994481;28;20228;-87
2021/01/23 03:17:57;;;;;;;83.17;42.70;;;;;;;2.64;100.00;96092.91;4994474;28;20200;-87
2021/01/23 03:20:24;;;;;;;48.87;29.63;;;;;;;2.71;100.00;96094.09;4994055;28;20224;-87
2021/01/23 03:22:51;;;;;;;32.47;22.27;;;;;;;2.66;100.00;96080.63;4994171;28;20212;-87
2021/01/23 03:25:18;;;;;;;179.27;94.60;;;;;;;2.45;100.00;96078.66;4993902;28;20250;-87
2021/01/23 03:27:45;;;;;;;86.73;52.43;;;;;;;2.67;100.00;96079.66;4994462;28;20283;-87
2021/01/23 03:30:13;;;;;;;27.23;20.63;;;;;;;2.83;100.00;96072.38;4994075;28;20727;-87
2021/01/23 03:32:40;;;;;;;19.17;14.23;;;;;;;2.91;100.00;96056.22;4994174;28;20244;-87
2021/01/23 03:35:08;;;;;;;15.93;12.80;;;;;;;2.88;100.00;96052.13;4994067;28;20204;-86
2021/01/23 03:37:35;;;;;;;16.00;11.67;;;;;;;2.93;100.00;96056.94;4993917;28;20235;-87
2021/01/23 03:40:04;;;;;;;16.33;12.30;;;;;;;2.68;100.00;96057.97;4962485;28;937740;-86
2021/01/23 03:42:31;;;;;;;18.80;13.47;;;;;;;2.74;100.00;96058.34;4994804;28;20204;-87
2021/01/23 03:44:58;;;;;;;20.60;13.63;;;;;;;2.76;100.00;96060.81;4994700;28;20283;-87
2021/01/23 03:47:25;;;;;;;20.97;14.30;;;;;;;2.85;100.00;96050.56;4994785;28;20205;-87
2021/01/23 03:49:52;;;;;;;17.43;12.50;;;;;;;2.61;100.00;96040.28;4995060;28;20219;-87
2021/01/23 03:52:19;;;;;;;15.50;12.70;;;;;;;2.70;100.00;96048.31;4994685;28;20204;-87
2021/01/23 03:54:45;;;;;;;16.90;12.87;;;;;;;2.62;100.00;96041.91;4994680;28;20206;-87
2021/01/23 03:57:13;;;;;;;15.60;11.93;;;;;;;2.89;100.00;96038.19;4994818;28;20602;-87
2021/01/23 03:59:40;;;;;;;23.37;15.37;;;;;;;2.67;100.00;96046.78;4994411;28;20220;-87
2021/01/23 04:02:07;;;;;;;21.27;19.03;;;;;;;2.45;100.00;96037.16;4994588;28;20227;-87
2021/01/23 04:04:34;;;;;;;16.57;13.33;;;;;;;2.52;100.00;96027.97;4994225;28;20201;-86
2021/01/23 04:07:01;;;;;;;20.30;13.53;;;;;;;2.58;100.00;96032.72;4994222;28;20208;-87
2021/01/23 04:09:28;;;;;;;14.63;12.53;;;;;;;2.51;100.00;96028.94;4994375;28;20200;-86
2021/01/23 04:11:55;;;;;;;14.53;12.83;;;;;;;2.53;100.00;96019.28;4994338;28;20210;-87
2021/01/23 04:14:23;;;;;;;19.70;13.90;;;;;;;2.73;100.00;96015.16;4994069;28;20211;-87
2021/01/23 04:16:50;;;;;;;16.10;12.97;;;;;;;2.58;100.00;96024.94;4994303;28;20206;-88
2021/01/23 04:22:45;;;;;;;19.07;13.93;;;;;;;2.57;100.00;96005.13;4884072;28;20721;-87
2021/01/23 04:25:12;;;;;;;18.30;14.27;;;;;;;2.58;100.00;96014.56;4993421;28;20271;-86
2021/01/23 04:27:41;;;;;;;17.37;12.80;;;;;;;2.57;100.00;96010.31;4993870;28;20204;-86
2021/01/23 04:30:11;;;;;;;16.63;13.00;;;;;;;2.45;100.00;96003.44;4993595;28;20240;-86
2021/01/23 04:32:38;;;;;;;19.73;14.20;;;;;;;2.35;100.00;96015.44;4994013;28;20184;-86
2021/01/23 04:35:09;;;;;;;20.53;14.93;;;;;;;2.56;100.00;96026.84;4993713;28;20259;-85
2021/01/23 04:37:36;;;;;;;21.57;17.60;;;;;;;2.72;100.00;96017.88;4993738;28;20195;-86
2021/01/23 04:40:05;;;;;;;28.77;21.20;;;;;;;2.71;100.00;96018.84;4993552;28;20232;-87
2021/01/23 04:42:32;;;;;;;22.23;17.83;;;;;;;2.65;100.00;96021.88;4993605;28;20200;-87
2021/01/23 04:45:00;;;;;;;19.33;14.57;;;;;;;2.68;100.00;96026.84;4993762;28;20204;-86
2021/01/23 04:47:28;;;;;;;18.70;14.00;;;;;;;2.43;100.00;96033.06;4993503;28;20295;-86
2021/01/23 04:49:55;;;;;;;40.50;24.57;;;;;;;2.24;100.00;96020.63;4993633;28;20678;-87
2021/01/23 04:52:22;;;;;;;23.73;18.20;;;;;;;2.34;100.00;96019.81;4993363;28;20200;-86
2021/01/23 04:54:49;;;;;;;160.70;107.10;;;;;;;1.97;100.00;96019.09;4993836;28;20585;-86
2021/01/23 04:57:16;;;;;;;42.27;32.10;;;;;;;1.92;100.00;96022.97;4993617;28;20574;-86
2021/01/23 04:59:42;;;;;;;31.23;22.13;;;;;;;1.93;100.00;96015.09;4993419;28;20224;-86
2021/01/23 05:02:20;;;;;;;25.27;19.37;;;;;;;2.25;100.00;96006.69;4993240;28;20200;-86
2021/01/23 05:04:51;;;;;;;22.50;17.83;;;;;;;2.16;100.00;96007.41;4993091;28;20199;-86
2021/01/23 05:07:29;;;;;;;24.97;21.33;;;;;;;2.05;100.00;96001.25;4993354;28;20636;-86
2021/01/23 05:09:56;;;;;;;47.10;35.83;;;;;;;1.97;100.00;96000.94;4993488;28;20191;-87
2021/01/23 05:12:39;;;;;;;40.40;31.33;;;;;;;1.95;100.00;96000.25;4993335;28;20611;-86
2021/01/23 05:15:08;;;;;;;41.03;29.67;;;;;;;1.98;100.00;95987.06;4992990;28;20669;-86
2021/01/23 05:17:56;;;;;;;40.73;29.80;;;;;;;2.02;100.00;95998.03;4993083;28;20255;-87
2021/01/23 05:20:36;;;;;;;24.40;17.23;;;;;;;1.92;100.00;95991.88;4988873;28;20227;-86
2021/01/23 05:23:04;;;;;;;19.70;14.43;;;;;;;1.96;100.00;95988.94;4993259;28;20565;-86
2021/01/23 05:25:32;;;;;;;18.63;13.93;;;;;;;2.31;100.00;95993.28;4992813;28;20231;-86
2021/01/23 05:28:01;;;;;;;25.93;18.23;;;;;;;2.24;100.00;95986.91;4992748;28;20207;-87
2021/01/23 05:30:50;;;;;;;31.43;21.77;;;;;;;1.93;100.00;95986.56;4992910;28;20204;-88
2021/01/23 05:33:19;;;;;;;25.63;19.57;;;;;;;1.88;100.00;95981.72;4993077;28;20235;-87
2021/01/23 05:35:58;;;;;;;17.47;13.70;;;;;;;2.11;100.00;95977.47;4992645;28;20676;-87
2021/01/23 05:38:27;;;;;;;18.87;15.47;;;;;;;1.94;100.00;95969.25;4993020;28;20228;-87
2021/01/23 05:40:57;;;;;;;26.43;21.27;;;;;;;2.01;100.00;95980.81;4992891;28;20693;-87
2021/01/23 05:43:37;;;;;;;23.57;17.00;;;;;;;2.08;100.00;95982.88;4992776;28;20200;-85
2021/01/23 05:46:05;;;;;;;23.10;17.93;;;;;;;1.95;100.00;95984.72;4992452;28;20683;-84
2021/01/23 05:48:33;;;;;;;37.70;28.30;;;;;;;1.91;100.00;95985.88;4992668;28;20283;-87
2021/01/23 05:51:03;;;;;;;34.47;27.20;;;;;;;1.79;100.00;95984.16;4992342;28;20287;-84
2021/01/23 05:53:30;;;;;;;22.73;19.10;;;;;;;1.76;100.00;95990.38;4992278;28;20192;-83
2021/01/23 05:55:59;;;;;;;28.07;23.50;;;;;;;1.72;100.00;95973.41;4992390;28;20200;-83
2021/01/23 05:58:26;;;;;;;33.27;25.30;;;;;;;1.63;100.00;95972.34;4992273;28;20196;-84
2021/01/23 06:00:55;;;;;;;30.40;23.83;;;;;;;1.77;100.00;95978.28;4992232;28;20315;-88
2021/01/23 06:03:22;;;;;;;44.67;34.33;;;;;;;1.63;100.00;95982.69;4992615;28;20259;-85
2021/01/23 06:05:54;;;;;;;51.87;40.10;;;;;;;1.64;100.00;95979.16;4991980;28;20208;-84
2021/01/23 06:08:37;;;;;;;22.43;17.03;;;;;;;1.85;100.00;95965.59;4992208;28;20192;-83
2021/01/23 06:11:04;;;;;;;16.07;12.60;;;;;;;2.00;100.00;95967.03;4992277;28;20199;-84
2021/01/23 06:13:45;;;;;;;18.93;13.53;;;;;;;2.06;100.00;95971.78;4991938;28;20211;-84
2021/01/23 06:16:37;;;;;;;13.87;11.50;;;;;;;2.15;100.00;95965.09;4992158;28;20642;-88
2021/01/23 06:19:33;;;;;;;59.00;30.67;;;;;;;2.25;100.00;95952.25;4992163;28;20227;-83
2021/01/23 06:22:00;;;;;;;34.50;28.57;;;;;;;2.30;100.00;95944.97;4991336;28;20651;-83
2021/01/23 06:24:52;;;;;;;48.13;34.33;;;;;;;2.27;100.00;95946.00;4992412;28;20580;-82
2021/01/23 06:27:19;;;;;;;67.90;49.03;;;;;;;2.19;100.00;95939.75;4991600;28;20223;-82
2021/01/23 06:29:46;;;;;;;160.33;111.13;;;;;;;2.15;100.00;95931.38;4991973;28;20196;-84
2021/01/23 06:32:30;;;;;;;199.70;131.37;;;;;;;2.30;100.00;95929.41;4992272;28;20239;-83
2021/01/23 06:34:58;;;;;;;114.57;67.07;;;;;;;2.60;100.00;95928.84;4992034;28;20207;-83
2021/01/23 06:37:29;;;;;;;36.73;25.63;;;;;;;2.65;100.00;95928.47;4991977;28;20650;-83
2021/01/23 06:40:27;;;;;;;71.93;46.63;;;;;;;2.59;100.00;95940.13;4991356;28;20247;-80
2021/01/23 06:42:54;;;;;;;189.03;120.50;;;;;;;2.65;100.00;95925.88;4991377;28;20302;-80
2021/01/23 06:45:26;;;;;;;146.20;93.53;;;;;;;2.89;100.00;95920.56;4990936;28;20197;-80
2021/01/23 06:47:54;;;;;;;119.03;74.63;;;;;;;2.93;100.00;95921.97;4992524;28;20192;-81
2021/01/23 06:50:33;;;;;;;67.83;45.70;;;;;;;3.11;100.00;95920.50;4994490;28;20208;-80
2021/01/23 06:53:01;;;;;;;41.70;31.87;;;;;;;3.31;100.00;95911.13;4994228;28;20262;-80
2021/01/23 06:55:46;;;;;;;33.03;24.70;;;;;;;3.18;100.00;95910.47;4994197;28;20192;-80
2021/01/23 06:58:18;;;;;;;30.17;22.73;;;;;;;3.28;100.00;95912.19;4994751;28;20211;-80
2021/01/23 07:00:46;;;;;;;52.57;37.70;;;;;;;3.38;100.00;95917.50;4994457;28;20208;-80
2021/01/23 07:03:14;;;;;;;45.73;32.07;;;;;;;3.29;100.00;95933.81;4993892;28;20200;-80
2021/01/23 07:05:48;;;;;;;101.33;56.83;;;;;;;3.45;100.00;95938.63;4994121;28;20239;-80
2021/01/23 07:08:22;;;;;;;101.53;60.27;;;;;;;3.48;100.00;95928.81;4993718;28;20589;-81
2021/01/23 07:11:10;;;;;;;69.80;41.87;;;;;;;3.81;100.00;95934.84;4994085;28;20202;-80
2021/01/23 07:13:39;;;;;;;33.83;24.13;;;;;;;4.14;100.00;95927.78;4993931;28;20250;-81
2021/01/23 07:16:06;;;;;;;50.70;38.13;;;;;;;4.36;100.00;95925.03;4993982;28;20283;-80
2021/01/23 07:18:33;;;;;;;31.70;22.40;;;;;;;4.56;100.00;95922.53;4993897;28;20580;-81
2021/01/23 07:21:03;;;;;;;28.00;21.50;;;;;;;4.78;100.00;95919.78;4993491;28;20223;-80
2021/01/23 07:23:31;;;;;;;21.80;18.33;;;;;;;4.62;100.00;95935.88;4993645;28;20196;-80
2021/01/23 07:26:01;;;;;;;30.33;20.80;;;;;;;4.81;100.00;95924.69;4994179;28;20204;-80
2021/01/23 07:28:29;;;;;;;27.37;20.03;;;;;;;4.89;100.00;95929.28;4993695;28;20239;-80
2021/01/23 07:30:56;;;;;;;26.67;20.47;;;;;;;5.09;100.00;95937.94;4993812;28;20200;-80
2021/01/23 07:33:30;;;;;;;35.07;23.37;;;;;;;5.05;100.00;95940.00;4993388;28;20291;-80
2021/01/23 07:35:57;;;;;;;32.93;25.83;;;;;;;4.88;100.00;95941.44;4993800;28;20742;-80
2021/01/23 07:38:27;;;;;;;33.37;23.90;;;;;;;4.85;100.00;95940.88;4993295;28;20317;-80
2021/01/23 07:40:56;;;;;;;28.93;20.70;;;;;;;4.98;100.00;95942.31;4993455;28;20340;-79
2021/01/23 07:43:23;;;;;;;25.27;19.33;;;;;;;5.03;100.00;95948.91;4993393;28;20204;-80
2021/01/23 07:45:55;;;;;;;26.60;22.33;;;;;;;5.08;100.00;95944.94;4993238;28;20200;-80
2021/01/23 07:48:22;;;;;;;37.93;29.33;;;;;;;5.00;100.00;95940.41;4993484;28;20191;-81
2021/01/23 07:50:49;;;;;;;34.47;26.73;;;;;;;5.14;100.00;95941.00;4993360;28;20204;-81
2021/01/23 07:53:17;;;;;;;36.07;28.10;;;;;;;5.29;100.00;95941.44;4993393;28;20222;-81
2021/01/23 07:55:44;;;;;;;33.60;26.43;;;;;;;5.19;100.00;95944.00;4993483;28;20204;-81
2021/01/23 07:58:12;;;;;;;37.60;26.73;;;;;;;5.22;100.00;95926.31;4993167;28;20735;-81
2021/01/23 08:00:39;;;;;;;34.80;27.00;;;;;;;5.33;100.00;95935.00;4992116;28;20266;-81
2021/01/23 08:03:08;;;;;;;33.20;26.30;;;;;;;5.27;100.00;95936.38;4993668;28;20602;-81
2021/01/23 08:05:45;;;;;;;35.33;27.17;;;;;;;5.38;100.00;95928.44;4993324;28;20203;-81
2021/01/23 08:08:33;;;;;;;58.27;38.60;;;;;;;5.45;100.00;95934.75;4993454;28;20196;-82
2021/01/23 08:11:00;;;;;;;52.40;37.07;;;;;;;5.51;100.00;95946.44;4993171;28;20748;-82
2021/01/23 08:13:29;;;;;;;50.47;33.33;;;;;;;5.62;100.00;95945.47;4992788;28;20688;-82
2021/01/23 08:16:09;;;;;;;47.73;32.70;;;;;;;5.88;100.00;95940.53;4993043;28;20203;-79
2021/01/23 08:18:38;;;;;;;44.33;30.57;;;;;;;6.17;100.00;95945.78;4992655;28;20646;-80
2021/01/23 08:21:15;;;;;;;39.03;28.80;;;;;;;6.40;100.00;95947.09;4992745;28;20220;-81
2021/01/23 08:23:42;;;;;;;35.83;26.57;;;;;;;6.75;100.00;95961.28;4992793;28;20664;-80
2021/01/23 08:26:09;;;;;;;31.40;24.23;;;;;;;6.62;100.00;95969.47;4992454;28;20696;-81
2021/01/23 08:28:40;;;;;;;39.93;28.63;;;;;;;7.01;100.00;95968.50;4992534;28;20207;-81
2021/01/23 08:31:14;;;;;;;49.40;34.53;;;;;;;7.48;100.00;95963.16;4992507;28;20201;-81
2021/01/23 08:33:42;;;;;;;50.17;36.73;;;;;;;7.68;100.00;95967.31;4992626;28;20287;-81
2021/01/23 08:36:10;;;;;;;38.97;28.60;;;;;;;8.08;100.00;95960.84;4992772;28;20275;-81
2021/01/23 08:38:37;;;;;;;37.47;26.47;;;;;;;8.36;100.00;95960.72;4991812;28;20271;-81
2021/01/23 08:41:04;;;;;;;36.00;27.70;;;;;;;8.57;100.00;95953.38;4992565;28;20310;-81
2021/01/23 08:43:31;;;;;;;23.13;16.13;;;;;;;8.86;100.00;95936.50;4992638;28;20204;-81
2021/01/23 08:45:58;;;;;;;46.47;35.37;;;;;;;8.95;100.00;95925.91;4992423;28;20743;-82
2021/01/23 08:48:25;;;;;;;56.60;41.23;;;;;;;8.91;100.00;95931.63;4992191;28;20212;-82
2021/01/23 08:50:53;;;;;;;41.03;28.90;;;;;;;8.78;100.00;95927.63;4992406;28;20200;-81
2021/01/23 08:53:20;;;;;;;39.37;28.97;;;;;;;8.82;100.00;95917.66;4992200;28;20200;-82
2021/01/23 08:55:47;;;;;;;48.00;33.13;;;;;;;8.80;100.00;95914.38;4991985;28;20220;-81
2021/01/23 08:58:13;;;;;;;19.27;16.33;;;;;;;8.87;100.00;95896.22;4991949;28;20205;-81
2021/01/23 09:00:40;;;;;;;15.87;11.80;;;;;;;9.04;100.00;95898.75;4991989;28;20604;-81
2021/01/23 09:03:07;;;;;;;9.67;7.20;;;;;;;9.41;100.00;95896.72;4991934;28;20196;-81
2021/01/23 09:05:34;;;;;;;12.10;8.03;;;;;;;9.80;100.00;95901.38;4991543;28;20207;-81
2021/01/23 09:08:02;;;;;;;11.77;8.07;;;;;;;9.82;100.00;95904.69;4991825;28;20200;-80
2021/01/23 09:10:29;;;;;;;9.37;7.93;;;;;;;9.83;100.00;95901.06;4991659;28;20235;-81
2021/01/23 09:12:55;;;;;;;10.80;8.13;;;;;;;9.79;100.00;95900.56;4992011;28;20235;-81
2021/01/23 09:15:22;;;;;;;7.70;6.47;;;;;;;9.84;100.00;95902.72;4991731;28;20632;-81
2021/01/23 09:17:49;;;;;;;7.60;5.80;;;;;;;10.19;100.00;95917.34;4991635;28;20204;-81
2021/01/23 09:20:16;;;;;;;8.40;7.40;;;;;;;10.40;100.00;95916.88;4992007;28;20223;-81
2021/01/23 09:22:43;;;;;;;7.73;6.43;;;;;;;10.69;100.00;95925.00;4991874;28;20743;-81
2021/01/23 09:25:12;;;;;;;9.53;5.90;;;;;;;10.65;100.00;95928.97;4991735;28;20707;-81
2021/01/23 09:27:39;;;;;;;9.37;6.07;;;;;;;11.02;100.00;95945.16;4991167;28;20207;-80
2021/01/23 09:30:07;;;;;;;7.70;6.90;;;;;;;11.22;100.00;95938.50;4991369;28;20290;-81
2021/01/23 09:32:34;;;;;;;6.00;5.50;;;;;;;11.14;100.00;95941.97;4990249;28;20210;-81
2021/01/23 09:35:02;;;;;;;6.03;5.40;;;;;;;11.37;100.00;95936.00;4991628;28;20200;-80
2021/01/23 09:37:30;;;;;;;6.63;5.97;;;;;;;11.48;100.00;95938.22;4990991;28;20620;-82
2021/01/23 09:39:57;;;;;;;10.03;6.30;;;;;;;11.36;100.00;95931.69;4991314;28;20290;-82
2021/01/23 09:42:24;;;;;;;10.53;6.10;;;;;;;11.19;100.00;95939.69;4991363;28;20211;-82
2021/01/23 09:44:51;;;;;;;5.67;4.83;;;;;;;11.23;100.00;95941.97;4991400;28;20211;-81
2021/01/23 09:47:18;;;;;;;10.83;7.87;;;;;;;11.35;100.00;95937.94;4991305;28;20201;-82
2021/01/23 09:49:45;;;;;;;11.70;10.20;;;;;;;11.16;100.00;95945.28;4991614;28;20692;-82
2021/01/23 09:52:12;;;;;;;7.67;6.67;;;;;;;10.92;100.00;95935.66;4991717;28;20266;-82
2021/01/23 09:54:39;;;;;;;10.07;5.80;;;;;;;10.65;100.00;95928.97;4991410;28;20212;-83
2021/01/23 09:57:08;;;;;;;20.97;18.63;;;;;;;10.54;100.00;95912.75;4992110;28;20204;-82
2021/01/23 09:59:38;;;;;;;27.57;20.63;;;;;;;10.81;100.00;95912.34;4991348;28;20224;-82
2021/01/23 10:02:05;;;;;;;291.80;119.30;;;;;;;10.77;100.00;95904.94;4992252;28;20196;-82
2021/01/23 10:04:40;;;;;;;139.87;54.93;;;;;;;10.81;100.00;95907.09;4992405;28;20204;-81
2021/01/23 10:07:07;;;;;;;197.70;78.73;;;;;;;10.68;100.00;95902.34;4992333;28;20191;-82
2021/01/23 10:09:35;;;;;;;50.13;25.50;;;;;;;10.83;100.00;95902.47;4992332;28;20200;-82
2021/01/23 10:12:02;;;;;;;32.23;24.10;;;;;;;10.94;100.00;95901.28;4992394;28;20302;-82
2021/01/23 10:14:29;;;;;;;31.43;23.57;;;;;;;10.87;100.00;95895.88;4992658;28;20211;-82
2021/01/23 10:16:57;;;;;;;11.87;9.87;;;;;;;10.77;100.00;95894.44;4991730;28;20597;-82
2021/01/23 10:19:25;;;;;;;7.57;6.20;;;;;;;10.95;100.00;95881.91;4992194;28;20224;-82
2021/01/23 10:21:52;;;;;;;7.07;5.50;;;;;;;11.10;100.00;95887.28;4992178;28;20377;-82
2021/01/23 10:24:20;;;;;;;6.53;5.93;;;;;;;10.90;100.00;95897.34;4995999;28;20208;-82
2021/01/23 10:26:47;;;;;;;8.53;5.73;;;;;;;10.71;100.00;95873.09;4997212;28;20196;-85
2021/01/23 10:29:15;;;;;;;8.67;5.67;;;;;;;10.72;100.00;95873.94;4997208;28;20262;-86
2021/01/23 10:31:41;;;;;;;6.03;5.43;;;;;;;10.43;100.00;95871.88;4996133;28;20196;-85
2021/01/23 10:34:10;;;;;;;9.33;6.17;;;;;;;10.75;100.00;95859.63;4996037;28;20240;-86
2021/01/23 10:36:36;;;;;;;9.67;7.03;;;;;;;10.93;100.00;95868.09;4995795;28;20200;-85
2021/01/23 10:39:04;;;;;;;10.43;7.83;;;;;;;10.85;100.00;95868.13;4995642;28;20243;-86
2021/01/23 10:41:31;;;;;;;9.53;7.07;;;;;;;10.77;100.00;95878.66;4995756;28;20207;-85
2021/01/23 10:43:58;;;;;;;8.87;7.17;;;;;;;11.00;100.00;95873.50;4995949;28;20577;-85
2021/01/23 10:46:24;;;;;;;13.67;9.03;;;;;;;11.07;100.00;95884.97;4995965;28;20290;-85
2021/01/23 10:48:51;;;;;;;47.83;27.63;;;;;;;11.08;100.00;95882.16;4995866;28;20207;-84
2021/01/23 10:51:19;;;;;;;35.13;19.43;;;;;;;11.32;100.00;95888.31;4996356;28;20207;-85
2021/01/23 10:53:46;;;;;;;69.43;35.80;;;;;;;10.99;100.00;95883.19;4995010;28;20192;-85
2021/01/23 10:56:13;;;;;;;32.83;20.87;;;;;;;11.01;100.00;95889.09;4996223;28;20208;-86
2021/01/23 10:58:40;;;;;;;31.40;20.17;;;;;;;10.80;100.00;95875.69;4996492;28;20224;-84
2021/01/23 11:01:07;;;;;;;17.13;13.40;;;;;;;10.69;100.00;95872.44;4995780;28;20228;-84
2021/01/23 11:03:35;;;;;;;8.90;7.07;;;;;;;10.58;100.00;95877.25;4995962;28;20211;-84
2021/01/23 11:06:02;;;;;;;11.40;7.67;;;;;;;10.53;100.00;95867.25;4978628;28;20211;-85
2021/01/23 11:08:30;;;;;;;10.93;8.57;;;;;;;10.65;100.00;95858.00;4995940;28;20242;-85
2021/01/23 11:10:58;;;;;;;7.27;6.20;;;;;;;10.52;100.00;95857.72;4995721;28;20196;-86
2021/01/23 11:13:25;;;;;;;14.20;12.23;;;;;;;10.63;100.00;95853.91;4996435;28;20204;-85
2021/01/23 11:15:52;;;;;;;11.20;9.23;;;;;;;10.65;100.00;95844.06;4995872;28;20201;-85
2021/01/23 11:18:19;;;;;;;8.87;7.67;;;;;;;10.52;100.00;95846.38;4995649;28;20200;-85
2021/01/23 11:20:49;;;;;;;12.60;6.27;;;;;;;10.52;100.00;95838.50;4995841;28;20603;-85
2021/01/23 11:23:16;;;;;;;6.60;5.90;;;;;;;10.59;100.00;95840.28;4996164;28;20216;-85
2021/01/23 11:25:44;;;;;;;8.50;6.73;;;;;;;10.63;100.00;95828.47;4995254;28;20595;-85
2021/01/23 11:28:11;;;;;;;8.07;6.20;;;;;;;10.67;100.00;95836.84;4995379;28;20258;-86
2021/01/23 11:30:42;;;;;;;8.83;4.97;;;;;;;10.60;100.00;95841.94;4995859;28;20207;-86